Time;durP1;ratioP1;P1;durP2;ratioP2;P2;SDS_P1;SDS_P2;PMS_P1;PMS_P2;Temp;Humidity;BMP_temperature;BMP_pressure;BME280_temperature;BME280_humidity;BME280_pressure;Samples;Min_cycle;Max_cycle;Signal;HPM_P1;HPM_P2
2022/10/02 00:02:13;;;;;;;;;;;;;;;17.01;59.62;95666.00;5039941;28;20109;-72
2022/10/02 00:04:52;;;;;;;;;;;;;;;16.82;60.56;95665.69;5034938;28;20493;-71
2022/10/02 00:07:19;;;;;;;;;;;;;;;17.33;59.01;95661.69;5028950;28;20018;-71
2022/10/02 00:09:47;;;;;;;;;;;;;;;17.53;58.57;95662.72;5028530;28;20075;-71
2022/10/02 00:12:15;;;;;;;;;;;;;;;17.67;58.71;95665.88;5027951;28;20425;-72
2022/10/02 00:14:41;;;;;;;;;;;;;;;17.03;59.31;95671.03;5028737;28;20021;-72
2022/10/02 00:17:11;;;;;;;;;;;;;;;17.43;58.53;95676.59;5028984;28;20068;-71
2022/10/02 00:19:36;;;;;;;;;;;;;;;16.82;60.20;95681.81;5034645;28;20025;-71
2022/10/02 00:22:34;;;;;;;;;;;;;;;16.09;63.64;95700.97;5035652;28;20018;-72
2022/10/02 00:25:18;;;;;;;;;;;;;;;16.11;65.57;95710.25;5008828;28;20022;-72
2022/10/02 00:27:55;;;;;;;;;;;;;;;15.10;70.41;95722.63;5010887;28;20018;-71
2022/10/02 00:30:21;;;;;;;;;;;;;;;14.58;74.23;95717.28;5028524;28;20536;-71
2022/10/02 00:33:04;;;;;;;;;;;;;;;14.21;75.63;95730.13;5046213;28;20018;-70
2022/10/02 00:35:32;;;;;;;;;;;;;;;14.38;75.43;95724.00;5031830;28;20067;-70
2022/10/02 00:37:57;;;;;;;;;;;;;;;14.15;77.10;95727.94;5028773;28;20421;-71
2022/10/02 00:40:34;;;;;;;;;;;;;;;13.96;77.94;95737.00;5024445;28;20040;-71
2022/10/02 00:43:04;;;;;;;;;;;;;;;14.57;76.92;95737.13;5015606;28;20017;-71
2022/10/02 00:45:38;;;;;;;;;;;;;;;14.45;75.97;95734.28;5028296;28;21681;-71
2022/10/02 00:48:03;;;;;;;;;;;;;;;14.26;76.11;95729.19;5041856;28;20746;-71
2022/10/02 00:50:58;;;;;;;;;;;;;;;14.93;74.96;95728.00;5028351;28;20108;-71
2022/10/02 00:53:29;;;;;;;;;;;;;;;15.20;74.63;95733.00;5009349;28;20014;-71
2022/10/02 00:55:57;;;;;;;;;;;;;;;15.20;72.77;95732.19;5040973;28;20021;-71
2022/10/02 00:58:41;;;;;;;;;;;;;;;15.36;73.24;95737.88;5039806;28;20048;-68
2022/10/02 01:01:16;;;;;;;;;;;;;;;15.67;73.32;95730.38;5027547;28;20056;-71
2022/10/02 01:03:55;;;;;;;;;;;;;;;15.97;73.08;95725.84;5028694;28;20425;-70
2022/10/02 01:06:26;;;;;;;;;;;;;;;15.96;73.19;95723.44;5030216;28;20055;-70
2022/10/02 01:08:51;;;;;;;;;;;;;;;16.18;73.39;95712.44;5038151;28;20394;-70
2022/10/02 01:11:17;;;;;;;;;;;;;;;16.35;73.33;95708.88;5038103;28;20014;-70
2022/10/02 01:13:43;;;;;;;;;;;;;;;16.46;72.92;95718.09;5040879;28;20873;-70
2022/10/02 01:16:10;;;;;;;;;;;;;;;16.40;71.87;95719.41;5028524;28;20014;-70
2022/10/02 01:18:35;;;;;;;;;;;;;;;16.41;72.26;95722.88;5032302;28;20022;-70
2022/10/02 01:21:20;;;;;;;;;;;;;;;16.54;72.88;95716.47;5028094;28;20144;-69
2022/10/02 01:23:48;;;;;;;;;;;;;;;16.62;72.93;95726.34;5028113;28;20022;-70
2022/10/02 01:26:14;;;;;;;;;;;;;;;16.33;70.89;95735.25;5028275;28;20199;-70
2022/10/02 01:28:39;;;;;;;;;;;;;;;16.30;71.81;95742.06;5027784;28;20534;-72
2022/10/02 01:31:09;;;;;;;;;;;;;;;16.13;71.21;95736.78;5029302;28;20405;-70
2022/10/02 01:33:37;;;;;;;;;;;;;;;16.11;71.29;95744.38;5017027;28;20022;-70
2022/10/02 01:36:03;;;;;;;;;;;;;;;16.05;71.10;95741.09;5015599;28;20077;-70
2022/10/02 01:38:28;;;;;;;;;;;;;;;16.15;71.75;95744.50;5032575;28;20009;-70
2022/10/02 01:40:54;;;;;;;;;;;;;;;16.15;72.23;95749.88;5031022;28;20020;-70
2022/10/02 01:43:20;;;;;;;;;;;;;;;16.30;71.80;95742.06;5043544;28;20104;-69
2022/10/02 01:46:04;;;;;;;;;;;;;;;16.08;70.83;95740.44;5044905;28;20500;-70
2022/10/02 01:48:38;;;;;;;;;;;;;;;16.09;71.70;95739.34;5031546;28;20498;-69
2022/10/02 01:51:11;;;;;;;;;;;;;;;16.33;71.39;95735.25;5031825;28;20087;-70
2022/10/02 01:53:36;;;;;;;;;;;;;;;16.11;70.91;95729.06;5031421;28;20014;-70
2022/10/02 01:56:06;;;;;;;;;;;;;;;16.35;71.42;95720.38;5044177;28;20028;-70
2022/10/02 01:58:32;;;;;;;;;;;;;;;16.33;71.04;95725.31;5051002;28;20013;-70
2022/10/02 02:01:20;;;;;;;;;;;;;;;15.89;70.85;95723.19;5033661;28;20021;-70
2022/10/02 02:03:57;;;;;;;;;;;;;;;15.63;69.32;95717.91;5031331;28;20367;-70
2022/10/02 02:06:31;;;;;;;;;;;;;;;15.93;70.88;95714.16;5033017;28;20031;-70
2022/10/02 02:09:14;;;;;;;;;;;;;;;15.97;71.59;95725.03;5039303;28;20070;-70
2022/10/02 02:11:42;;;;;;;;;;;;;;;15.99;71.55;95736.22;5031124;28;20017;-70
2022/10/02 02:14:22;;;;;;;;;;;;;;;15.55;70.08;95741.72;5031387;28;20045;-70
2022/10/02 02:16:50;;;;;;;;;;;;;;;15.57;70.78;95747.56;5034499;28;20018;-70
2022/10/02 02:19:30;;;;;;;;;;;;;;;15.62;69.71;95743.16;5029594;28;20389;-70
2022/10/02 02:22:18;;;;;;;;;;;;;;;15.52;70.69;95733.56;5029926;28;20064;-70
2022/10/02 02:24:46;;;;;;;;;;;;;;;15.64;70.99;95747.09;5029261;28;20565;-70
2022/10/02 02:27:17;;;;;;;;;;;;;;;15.65;69.27;95732.59;5044424;28;20478;-70
2022/10/02 02:29:44;;;;;;;;;;;;;;;15.63;69.60;95737.50;5031720;28;20068;-70
2022/10/02 02:32:14;;;;;;;;;;;;;;;15.73;71.18;95734.47;5029938;28;20125;-70
2022/10/02 02:34:45;;;;;;;;;;;;;;;15.78;70.78;95733.50;5030882;28;20018;-70
2022/10/02 02:37:17;;;;;;;;;;;;;;;16.16;71.28;95728.06;5031737;28;20060;-70
2022/10/02 02:39:49;;;;;;;;;;;;;;;16.26;70.50;95733.06;5034150;28;20462;-70
2022/10/02 02:42:17;;;;;;;;;;;;;;;16.29;71.02;95731.66;5029982;28;20022;-70
2022/10/02 02:44:54;;;;;;;;;;;;;;;16.29;70.09;95737.81;5030674;28;20021;-70
2022/10/02 02:47:22;;;;;;;;;;;;;;;15.92;70.38;95747.47;5029651;28;20043;-70
2022/10/02 02:50:11;;;;;;;;;;;;;;;15.74;68.93;95743.28;5042211;28;20501;-70
2022/10/02 02:52:43;;;;;;;;;;;;;;;16.15;70.36;95736.47;5049969;28;20021;-70
2022/10/02 02:55:14;;;;;;;;;;;;;;;16.30;70.73;95733.22;5035075;28;20018;-70
2022/10/02 02:57:45;;;;;;;;;;;;;;;16.06;68.60;95734.59;5031574;28;20103;-70
2022/10/02 03:00:12;;;;;;;;;;;;;;;15.94;70.02;95741.78;5029022;28;20490;-71
2022/10/02 03:02:38;;;;;;;;;;;;;;;16.15;70.03;95734.56;5030247;28;20018;-70
2022/10/02 03:05:10;;;;;;;;;;;;;;;15.97;69.93;95728.50;5031549;28;20355;-71
2022/10/02 03:07:35;;;;;;;;;;;;;;;16.05;70.04;95745.66;5029141;28;20029;-71
2022/10/02 03:10:18;;;;;;;;;;;;;;;15.99;69.12;95747.75;5029779;28;20018;-70
2022/10/02 03:12:56;;;;;;;;;;;;;;;16.08;69.28;95740.44;5029963;28;20013;-70
2022/10/02 03:15:48;;;;;;;;;;;;;;;16.20;69.64;95739.75;5030299;28;20025;-70
2022/10/02 03:18:19;;;;;;;;;;;;;;;16.22;69.63;95734.81;5007360;28;20478;-72
2022/10/02 03:20:53;;;;;;;;;;;;;;;16.38;69.45;95741.22;5030261;28;20018;-71
2022/10/02 03:23:24;;;;;;;;;;;;;;;16.16;67.90;95740.72;5030078;28;20018;-70
2022/10/02 03:26:12;;;;;;;;;;;;;;;16.37;69.36;95742.31;5038765;28;20067;-70
2022/10/02 03:28:45;;;;;;;;;;;;;;;16.36;69.15;95740.75;5043264;28;20490;-70
2022/10/02 03:31:11;;;;;;;;;;;;;;;16.25;68.68;95738.78;5028674;28;20013;-70
2022/10/02 03:33:37;;;;;;;;;;;;;;;16.25;69.39;95734.19;5028316;28;20437;-70
2022/10/02 03:36:03;;;;;;;;;;;;;;;16.42;69.42;95729.81;5030969;28;20056;-70
2022/10/02 03:38:30;;;;;;;;;;;;;;;16.27;67.65;95734.63;5039654;28;20048;-71
2022/10/02 03:40:57;;;;;;;;;;;;;;;16.48;68.57;95740.06;5030545;28;20026;-70
2022/10/02 03:43:24;;;;;;;;;;;;;;;16.22;67.21;95742.09;5028495;28;20021;-70
2022/10/02 03:45:49;;;;;;;;;;;;;;;16.32;68.10;95736.34;5029767;28;20067;-70
2022/10/02 03:48:14;;;;;;;;;;;;;;;16.57;69.16;95735.38;5027811;28;20441;-70
2022/10/02 03:50:39;;;;;;;;;;;;;;;16.51;68.20;95739.38;5046515;28;20024;-70
2022/10/02 03:53:11;;;;;;;;;;;;;;;16.61;67.61;95730.94;5046485;28;20154;-70
2022/10/02 03:55:39;;;;;;;;;;;;;;;16.70;68.01;95738.16;5030728;28;20016;-70
2022/10/02 03:58:12;;;;;;;;;;;;;;;16.80;68.77;95718.97;5030147;28;20101;-70
2022/10/02 04:00:45;;;;;;;;;;;;;;;16.87;68.79;95724.59;5027473;28;20020;-70
2022/10/02 04:03:14;;;;;;;;;;;;;;;16.88;68.49;95718.09;5047576;28;20100;-70
2022/10/02 04:05:39;;;;;;;;;;;;;;;16.87;68.47;95719.22;5010813;28;20011;-70
2022/10/02 04:08:12;;;;;;;;;;;;;;;16.84;67.23;95727.97;5009169;28;20029;-69
2022/10/02 04:10:49;;;;;;;;;;;;;;;16.75;66.96;95719.97;5027483;28;20018;-71
2022/10/02 04:13:31;;;;;;;;;;;;;;;16.86;68.76;95728.41;5029294;28;20020;-70
2022/10/02 04:16:01;;;;;;;;;;;;;;;16.68;67.09;95725.03;5029235;28;20048;-70
2022/10/02 04:18:32;;;;;;;;;;;;;;;16.47;66.88;95719.66;5028599;28;20538;-70
2022/10/02 04:21:01;;;;;;;;;;;;;;;16.48;67.92;95728.50;5030280;28;20016;-71
2022/10/02 04:23:30;;;;;;;;;;;;;;;16.49;68.06;95725.50;5042277;28;20021;-70
2022/10/02 04:26:28;;;;;;;;;;;;;;;16.57;67.92;95724.66;5028589;28;20488;-71
2022/10/02 04:28:55;;;;;;;;;;;;;;;16.70;68.34;95727.41;4987181;28;20122;-70
2022/10/02 04:31:21;;;;;;;;;;;;;;;16.83;68.82;95712.94;5018208;28;20018;-70
2022/10/02 04:33:47;;;;;;;;;;;;;;;16.91;68.36;95724.75;5028532;28;20018;-70
2022/10/02 04:36:24;;;;;;;;;;;;;;;16.86;67.72;95712.28;5029195;28;20036;-69
2022/10/02 04:38:55;;;;;;;;;;;;;;;16.36;68.95;95713.13;5028567;28;20029;-70
2022/10/02 04:41:26;;;;;;;;;;;;;;;16.37;68.00;95726.19;5029033;28;20019;-70
2022/10/02 04:44:10;;;;;;;;;;;;;;;16.48;68.09;95713.19;5034061;28;20024;-70
2022/10/02 04:47:11;;;;;;;;;;;;;;;16.19;68.48;95713.25;5035228;28;20072;-71
2022/10/02 04:49:54;;;;;;;;;;;;;;;16.52;68.75;95708.72;5006358;28;20021;-69
2022/10/02 04:52:26;;;;;;;;;;;;;;;16.71;68.48;95716.38;5024445;28;20026;-70
2022/10/02 04:55:09;;;;;;;;;;;;;;;16.71;67.19;95716.38;5028860;28;20112;-69
2022/10/02 04:57:51;;;;;;;;;;;;;;;16.76;67.40;95713.47;5042949;28;20050;-70
2022/10/02 05:00:18;;;;;;;;;;;;;;;16.55;67.97;95721.50;5028995;28;20013;-70
2022/10/02 05:02:56;;;;;;;;;;;;;;;16.84;68.58;95703.78;5028644;28;20014;-72
2022/10/02 05:05:33;;;;;;;;;;;;;;;16.78;68.03;95703.19;5028506;28;20065;-70
2022/10/02 05:07:58;;;;;;;;;;;;;;;16.76;66.73;95710.00;5031557;28;20021;-70
2022/10/02 05:10:32;;;;;;;;;;;;;;;16.86;67.83;95706.91;5048103;28;20024;-71
2022/10/02 05:12:58;;;;;;;;;;;;;;;16.72;67.28;95719.84;5040677;28;20017;-71
2022/10/02 05:15:26;;;;;;;;;;;;;;;16.45;66.80;95726.50;5032911;28;20105;-70
2022/10/02 05:18:14;;;;;;;;;;;;;;;16.38;67.53;95727.81;5031650;28;20014;-70
2022/10/02 05:20:45;;;;;;;;;;;;;;;16.54;67.98;95727.22;5029536;28;20025;-70
2022/10/02 05:23:22;;;;;;;;;;;;;;;16.46;68.97;95720.00;5031877;28;20010;-70
2022/10/02 05:25:47;;;;;;;;;;;;;;;16.36;67.33;95723.84;5032591;28;20032;-70
2022/10/02 05:28:22;;;;;;;;;;;;;;;16.19;68.95;95719.38;5032794;28;20018;-70
2022/10/02 05:30:53;;;;;;;;;;;;;;;16.33;68.04;95716.47;5018317;28;20013;-70
2022/10/02 05:33:31;;;;;;;;;;;;;;;16.34;67.30;95720.72;5032314;28;20016;-70
2022/10/02 05:35:59;;;;;;;;;;;;;;;16.15;68.59;95729.19;5033207;28;20501;-70
2022/10/02 05:38:30;;;;;;;;;;;;;;;15.88;69.02;95733.13;5030756;28;20071;-70
2022/10/02 05:41:11;;;;;;;;;;;;;;;16.36;68.68;95723.84;5050546;28;20036;-70
2022/10/02 05:43:45;;;;;;;;;;;;;;;16.66;68.79;95718.44;5038578;28;20022;-71
2022/10/02 05:46:17;;;;;;;;;;;;;;;16.40;68.34;95719.41;5030595;28;20115;-70
2022/10/02 05:48:53;;;;;;;;;;;;;;;16.18;68.96;95709.00;5031313;28;20028;-70
2022/10/02 05:51:35;;;;;;;;;;;;;;;16.28;68.90;95711.28;5038981;28;20111;-70
2022/10/02 05:54:21;;;;;;;;;;;;;;;15.42;71.08;95712.47;5046890;28;20021;-71
2022/10/02 05:56:57;;;;;;;;;;;;;;;16.10;70.10;95719.44;5031063;28;20021;-70
2022/10/02 05:59:32;;;;;;;;;;;;;;;15.43;70.75;95716.72;5030208;28;20040;-71
2022/10/02 06:02:01;;;;;;;;;;;;;;;15.86;70.26;95727.28;5031599;28;20025;-68
2022/10/02 06:04:30;;;;;;;;;;;;;;;16.36;69.79;95724.63;5037979;28;20018;-67
2022/10/02 06:07:00;;;;;;;;;;;;;;;15.22;72.37;95725.44;5032463;28;20029;-69
2022/10/02 06:09:27;;;;;;;;;;;;;;;15.17;73.30;95724.81;5031175;28;20022;-70
2022/10/02 06:12:05;;;;;;;;;;;;;;;15.26;72.40;95736.31;5032722;28;20010;-71
2022/10/02 06:14:39;;;;;;;;;;;;;;;15.11;73.42;95736.81;5031971;28;20386;-70
2022/10/02 06:17:34;;;;;;;;;;;;;;;15.19;72.75;95742.13;5026838;28;20492;-69
2022/10/02 06:20:18;;;;;;;;;;;;;;;15.68;72.21;95741.91;5024140;28;20025;-73
2022/10/02 06:23:03;;;;;;;;;;;;;;;15.43;72.32;95746.97;5031997;28;20024;-64
2022/10/02 06:25:52;;;;;;;;;;;;;;;15.80;71.60;95750.03;5030311;28;20018;-69
2022/10/02 06:28:24;;;;;;;;;;;;;;;16.47;72.24;95746.53;5021468;28;20022;-69
2022/10/02 06:30:54;;;;;;;;;;;;;;;16.80;72.18;95743.94;5029379;28;20076;-70
2022/10/02 06:33:23;;;;;;;;;;;;;;;16.87;69.90;95759.53;5029829;28;20022;-70
2022/10/02 06:36:07;;;;;;;;;;;;;;;16.46;70.18;95747.63;5035366;28;20017;-70
2022/10/02 06:38:48;;;;;;;;;;;;;;;15.63;71.47;95745.53;5046887;28;20357;-70
2022/10/02 06:41:19;;;;;;;;;;;;;;;16.33;70.61;95741.41;5051786;28;20016;-66
2022/10/02 06:43:47;;;;;;;;;;;;;;;16.43;71.29;95740.25;5037106;28;20395;-66
2022/10/02 06:46:21;;;;;;;;;;;;;;;16.67;70.95;95744.19;5036964;28;20493;-66
2022/10/02 06:48:57;;;;;;;;;;;;;;;16.55;70.42;95744.91;5035983;28;20022;-66
2022/10/02 06:51:22;;;;;;;;;;;;;;;16.31;70.90;95748.22;5030557;28;20383;-66
2022/10/02 06:53:53;;;;;;;;;;;;;;;16.20;70.62;95755.06;5029696;28;20156;-67
2022/10/02 06:56:33;;;;;;;;;;;;;;;16.70;71.27;95743.53;5030632;28;20037;-66
2022/10/02 06:59:13;;;;;;;;;;;;;;;16.44;69.60;95752.56;5041993;28;20139;-66
2022/10/02 07:01:57;;;;;;;;;;;;;;;16.92;70.23;95739.75;5029961;28;20056;-66
2022/10/02 07:04:41;;;;;;;;;;;;;;;17.16;69.98;95745.22;5030651;28;20018;-67
2022/10/02 07:07:06;;;;;;;;;;;;;;;17.25;69.89;95755.88;5025703;28;20124;-67
2022/10/02 07:09:47;;;;;;;;;;;;;;;17.15;69.04;95760.56;5027678;28;20556;-67
2022/10/02 07:12:12;;;;;;;;;;;;;;;17.35;69.16;95753.56;5028129;28;20500;-67
2022/10/02 07:14:37;;;;;;;;;;;;;;;17.45;68.72;95748.88;5034000;28;20017;-67
2022/10/02 07:17:15;;;;;;;;;;;;;;;17.71;68.35;95730.56;5027691;28;20017;-66
2022/10/02 07:19:49;;;;;;;;;;;;;;;17.31;66.04;95749.97;5021360;28;20025;-67
2022/10/02 07:22:32;;;;;;;;;;;;;;;16.71;68.40;95758.53;5019150;28;20023;-67
2022/10/02 07:25:18;;;;;;;;;;;;;;;16.72;69.41;95750.16;5027680;28;20947;-70
2022/10/02 07:27:50;;;;;;;;;;;;;;;17.33;69.38;95741.56;5052068;28;20024;-77
2022/10/02 07:30:16;;;;;;;;;;;;;;;17.00;68.12;95746.94;5031824;28;20010;-76
2022/10/02 07:33:00;;;;;;;;;;;;;;;17.27;69.02;95751.75;5031121;28;20018;-77
2022/10/02 07:35:45;;;;;;;;;;;;;;;17.00;68.26;95752.31;5030046;28;20650;-77
2022/10/02 07:38:10;;;;;;;;;;;;;;;17.16;68.79;95745.22;5031059;28;20021;-86
2022/10/02 07:40:54;;;;;;;;;;;;;;;17.49;67.57;95747.09;5029797;28;20018;-72
2022/10/02 07:43:22;;;;;;;;;;;;;;;17.43;67.53;95746.53;5030909;28;20018;-70
2022/10/02 07:45:59;;;;;;;;;;;;;;;17.59;65.56;95738.59;5031138;28;20398;-71
2022/10/02 07:48:32;;;;;;;;;;;;;;;17.99;66.86;95738.78;5043790;28;20121;-71
2022/10/02 07:50:57;;;;;;;;;;;;;;;18.15;65.61;95738.88;5051195;28;20010;-78
2022/10/02 07:53:37;;;;;;;;;;;;;;;18.35;65.40;95729.13;5050843;28;20079;-70
2022/10/02 07:56:04;;;;;;;;;;;;;;;18.59;65.40;95734.47;5031475;28;20063;-71
2022/10/02 07:58:30;;;;;;;;;;;;;;;18.72;64.44;95731.75;5028977;28;20386;-70
2022/10/02 08:00:59;;;;;;;;;;;;;;;18.86;63.60;95724.09;5032419;28;20025;-70
2022/10/02 08:03:43;;;;;;;;;;;;;;;19.00;62.50;95713.69;5029560;28;20010;-70
2022/10/02 08:06:08;;;;;;;;;;;;;;;18.69;60.65;95722.47;5029283;28;20013;-70
2022/10/02 08:08:39;;;;;;;;;;;;;;;18.81;62.33;95719.72;5029971;28;20063;-71
2022/10/02 08:11:08;;;;;;;;;;;;;;;19.10;62.28;95721.31;5029091;28;20022;-71
2022/10/02 08:13:38;;;;;;;;;;;;;;;19.22;61.59;95723.16;5029573;28;20014;-70
2022/10/02 08:16:05;;;;;;;;;;;;;;;18.99;59.88;95714.84;5030594;28;20010;-70
2022/10/02 08:18:42;;;;;;;;;;;;;;;19.28;61.09;95712.88;5029952;28;20413;-69
2022/10/02 08:21:16;;;;;;;;;;;;;;;19.42;60.95;95711.34;5028484;28;20020;-70
2022/10/02 08:23:44;;;;;;;;;;;;;;;19.51;60.31;95716.59;5036388;28;20024;-73
2022/10/02 08:26:12;;;;;;;;;;;;;;;19.56;60.19;95710.94;5034150;28;20417;-72
2022/10/02 08:28:48;;;;;;;;;;;;;;;19.56;59.76;95708.25;5035059;28;20018;-72
2022/10/02 08:31:14;;;;;;;;;;;;;;;19.54;59.70;95707.00;5032515;28;20020;-72
2022/10/02 08:33:40;;;;;;;;;;;;;;;19.60;59.75;95708.34;5030058;28;20351;-68
2022/10/02 08:36:06;;;;;;;;;;;;;;;19.66;59.90;95705.06;5029618;28;20470;-68
2022/10/02 08:38:45;;;;;;;;;;;;;;;19.65;58.83;95703.47;5030568;28;20162;-67
2022/10/02 08:41:10;;;;;;;;;;;;;;;19.90;58.86;95700.59;5038172;28;20018;-68
2022/10/02 08:43:55;;;;;;;;;;;;;;;20.13;58.17;95696.13;5050788;28;20385;-68
2022/10/02 08:46:20;;;;;;;;;;;;;;;20.47;57.98;95691.09;5051256;28;20035;-70
2022/10/02 08:49:01;;;;;;;;;;;;;;;20.77;56.75;95686.69;5054127;28;20684;-69
2022/10/02 08:51:43;;;;;;;;;;;;;;;20.97;56.17;95684.00;5051426;28;20017;-69
2022/10/02 08:54:26;;;;;;;;;;;;;;;21.17;55.78;95682.84;5043385;28;20018;-68
2022/10/02 08:57:02;;;;;;;;;;;;;;;21.23;55.34;95678.69;5029947;28;20482;-72
2022/10/02 08:59:46;;;;;;;;;;;;;;;21.35;55.56;95674.31;5014574;28;20017;-72
2022/10/02 09:02:37;;;;;;;;;;;;;;;21.40;54.87;95671.31;5019832;28;20013;-72
2022/10/02 09:05:22;;;;;;;;;;;;;;;21.50;54.93;95666.06;5052249;28;20079;-72
2022/10/02 09:08:06;;;;;;;;;;;;;;;21.84;53.94;95658.09;5054439;28;20021;-73
2022/10/02 09:10:50;;;;;;;;;;;;;;;21.98;53.38;95657.53;5032950;28;20443;-71
2022/10/02 09:13:21;;;;;;;;;;;;;;;22.02;53.23;95650.25;5046979;28;20108;-71
2022/10/02 09:15:52;;;;;;;;;;;;;;;22.25;53.33;95648.28;5053121;28;20104;-71
2022/10/02 09:18:23;;;;;;;;;;;;;;;22.53;52.77;95644.38;5054028;28;20009;-72
2022/10/02 09:20:49;;;;;;;;;;;;;;;22.90;51.73;95638.25;5052997;28;20377;-72
2022/10/02 09:23:20;;;;;;;;;;;;;;;23.04;51.51;95641.91;5050583;28;20021;-72
2022/10/02 09:25:45;;;;;;;;;;;;;;;22.96;50.69;95640.25;5032071;28;20866;-71
2022/10/02 09:28:10;;;;;;;;;;;;;;;23.07;51.25;95640.38;5032679;28;20064;-71
2022/10/02 09:30:46;;;;;;;;;;;;;;;23.15;51.45;95643.94;5034022;28;20045;-71
2022/10/02 09:33:30;;;;;;;;;;;;;;;23.22;51.53;95638.59;5033236;28;20044;-72
2022/10/02 09:36:00;;;;;;;;;;;;;;;23.15;51.18;95628.44;5034198;28;20009;-73
2022/10/02 09:38:44;;;;;;;;;;;;;;;23.18;51.37;95621.47;5033325;28;20049;-73
2022/10/02 09:41:27;;;;;;;;;;;;;;;23.10;51.32;95620.66;5035329;28;20097;-72
2022/10/02 09:44:17;;;;;;;;;;;;;;;23.00;51.98;95615.88;5053793;28;20394;-71
2022/10/02 09:46:43;;;;;;;;;;;;;;;22.83;51.91;95606.38;5053467;28;20017;-70
2022/10/02 09:49:26;;;;;;;;;;;;;;;22.84;51.94;95606.00;5053663;28;20017;-71
2022/10/02 09:52:04;;;;;;;;;;;;;;;22.81;51.94;95604.03;5050866;28;20025;-70
2022/10/02 09:54:48;;;;;;;;;;;;;;;23.03;52.14;95607.78;5043987;28;20025;-71
2022/10/02 09:57:33;;;;;;;;;;;;;;;23.21;51.27;95597.09;5030980;28;20029;-72
2022/10/02 10:00:04;;;;;;;;;;;;;;;23.21;51.28;95586.25;5032824;28;20009;-72
2022/10/02 10:02:48;;;;;;;;;;;;;;;23.32;51.29;95589.81;5034993;28;20017;-69
2022/10/02 10:05:34;;;;;;;;;;;;;;;23.47;50.98;95584.50;5031667;28;20013;-72
2022/10/02 10:08:06;;;;;;;;;;;;;;;23.39;49.66;95585.59;5049392;28;20021;-73
2022/10/02 10:10:35;;;;;;;;;;;;;;;23.19;50.33;95580.41;5044251;28;20018;-72
2022/10/02 10:13:21;;;;;;;;;;;;;;;22.88;50.17;95575.41;5052604;28;20005;-72
2022/10/02 10:16:17;;;;;;;;;;;;;;;23.43;50.67;95589.13;5052989;28;20017;-72
2022/10/02 10:18:48;;;;;;;;;;;;;;;23.18;50.70;95578.84;5048706;28;20017;-72
2022/10/02 10:21:19;;;;;;;;;;;;;;;23.24;50.63;95574.66;5051516;28;20056;-72
2022/10/02 10:24:02;;;;;;;;;;;;;;;22.68;51.45;95577.56;5052264;28;20014;-72
2022/10/02 10:26:46;;;;;;;;;;;;;;;23.59;50.95;95573.34;5040580;28;20397;-71
2022/10/02 10:29:11;;;;;;;;;;;;;;;21.96;52.95;95567.75;5029513;28;20024;-72
2022/10/02 10:31:46;;;;;;;;;;;;;;;22.71;52.63;95566.72;5047681;28;20018;-73
2022/10/02 10:34:30;;;;;;;;;;;;;;;22.30;52.48;95560.44;5052641;28;20015;-72
2022/10/02 10:40:01;;;;;;;;;;;;;;;22.10;53.01;95554.38;5050244;28;20063;-71
2022/10/02 10:42:48;;;;;;;;;;;;;;;21.62;54.60;95556.81;5030943;28;20017;-70
2022/10/02 10:45:22;;;;;;;;;;;;;;;21.88;54.09;95558.72;5031109;28;20014;-71
2022/10/02 10:47:58;;;;;;;;;;;;;;;22.57;52.17;95556.53;5031005;28;20115;-71
2022/10/02 10:50:23;;;;;;;;;;;;;;;23.10;51.49;95558.22;5031989;28;20112;-71
2022/10/02 10:52:51;;;;;;;;;;;;;;;22.37;53.05;95557.03;5027020;28;20163;-72
2022/10/02 10:55:19;;;;;;;;;;;;;;;21.88;53.83;95547.13;5024873;28;20120;-71
2022/10/02 10:58:03;;;;;;;;;;;;;;;22.04;54.53;95545.78;5031734;28;20022;-73
2022/10/02 11:00:29;;;;;;;;;;;;;;;23.17;52.21;95541.22;5011749;28;20109;-73
2022/10/02 11:03:03;;;;;;;;;;;;;;;24.35;50.19;95540.03;5012052;28;20148;-72
2022/10/02 11:05:46;;;;;;;;;;;;;;;24.01;49.12;95539.50;5033692;28;20016;-71
2022/10/02 11:08:12;;;;;;;;;;;;;;;24.41;49.04;95538.53;5051312;28;20396;-71
2022/10/02 11:10:40;;;;;;;;;;;;;;;24.19;48.51;95537.63;5035244;28;20017;-70
2022/10/02 11:13:18;;;;;;;;;;;;;;;23.77;49.02;95527.34;5026484;28;20014;-69
2022/10/02 11:15:59;;;;;;;;;;;;;;;23.10;50.30;95541.94;5012173;28;20014;-70
2022/10/02 11:18:25;;;;;;;;;;;;;;;22.61;52.49;95525.94;5040827;28;20022;-70
2022/10/02 11:21:09;;;;;;;;;;;;;;;21.66;53.60;95536.00;5050286;28;20014;-71
2022/10/02 11:23:48;;;;;;;;;;;;;;;21.20;55.60;95537.97;5045264;28;20018;-71
2022/10/02 11:26:20;;;;;;;;;;;;;;;20.64;56.94;95547.44;5034810;28;20013;-71
2022/10/02 11:28:50;;;;;;;;;;;;;;;20.90;56.38;95527.03;5050876;28;20021;-71
2022/10/02 11:31:26;;;;;;;;;;;;;;;20.55;57.37;95516.38;5049928;28;20393;-70
2022/10/02 11:34:08;;;;;;;;;;;;;;;21.24;55.64;95514.44;5051190;28;20099;-70
2022/10/02 11:36:41;;;;;;;;;;;;;;;20.73;56.13;95510.16;5048897;28;20021;-71
2022/10/02 11:39:13;;;;;;;;;;;;;;;21.16;55.04;95502.75;5049786;28;20486;-70
2022/10/02 11:41:52;;;;;;;;;;;;;;;22.84;52.12;95502.16;5034385;28;20017;-71
2022/10/02 11:44:29;;;;;;;;;;;;;;;22.09;53.03;95490.50;5051202;28;20040;-70
2022/10/02 11:47:13;;;;;;;;;;;;;;;23.12;50.23;95493.50;5047910;28;20067;-70
2022/10/02 11:49:59;;;;;;;;;;;;;;;22.65;51.30;95486.88;5050758;28;20009;-70
2022/10/02 11:52:43;;;;;;;;;;;;;;;22.29;51.42;95475.66;5032757;28;20029;-71
2022/10/02 11:55:28;;;;;;;;;;;;;;;22.47;50.89;95473.16;5030743;28;20151;-70
2022/10/02 11:58:13;;;;;;;;;;;;;;;22.81;51.00;95473.84;5034521;28;20017;-69
2022/10/02 12:00:54;;;;;;;;;;;;;;;22.47;51.06;95469.63;5031183;28;20477;-69
2022/10/02 12:03:38;;;;;;;;;;;;;;;22.25;51.50;95474.84;5011992;28;20454;-70
2022/10/02 12:06:06;;;;;;;;;;;;;;;21.60;53.32;95477.91;5010558;28;20057;-70
2022/10/02 12:08:34;;;;;;;;;;;;;;;22.54;50.68;95467.78;5012047;28;20497;-72
2022/10/02 12:11:08;;;;;;;;;;;;;;;21.98;51.93;95490.38;5049846;28;20425;-72
2022/10/02 12:13:59;;;;;;;;;;;;;;;21.27;54.39;95463.09;5032561;28;20055;-72
2022/10/02 12:16:54;;;;;;;;;;;;;;;21.11;55.05;95467.88;5049917;28;20017;-72
2022/10/02 12:19:29;;;;;;;;;;;;;;;22.43;52.39;95458.78;4962976;28;20015;-72
2022/10/02 12:27:43;;;;;;;;;;;;;;;22.68;51.07;95459.03;5023298;28;20070;-72
2022/10/02 12:30:12;;;;;;;;;;;;;;;23.04;49.99;95453.94;5030689;28;20010;-73
2022/10/02 12:32:43;;;;;;;;;;;;;;;21.52;53.21;95454.59;5031107;28;20010;-71
2022/10/02 12:35:08;;;;;;;;;;;;;;;22.62;51.34;95433.38;5029746;28;20382;-71
2022/10/02 12:37:44;;;;;;;;;;;;;;;22.05;52.36;95428.16;5036425;28;20017;-71
2022/10/02 12:40:12;;;;;;;;;;;;;;;20.96;55.44;95431.72;5034125;28;20043;-70
2022/10/02 12:42:53;;;;;;;;;;;;;;;20.89;56.09;95431.63;5036945;28;20018;-70
2022/10/02 12:45:27;;;;;;;;;;;;;;;22.15;52.09;95443.00;5031125;28;20501;-69
2022/10/02 12:47:59;;;;;;;;;;;;;;;21.39;54.85;95437.00;5029112;28;20060;-73
2022/10/02 12:50:24;;;;;;;;;;;;;;;22.60;51.62;95432.97;5042601;28;20403;-74
2022/10/02 12:52:55;;;;;;;;;;;;;;;21.33;54.32;95431.13;5049446;28;20110;-75
2022/10/02 12:55:30;;;;;;;;;;;;;;;21.88;53.90;95444.22;5047715;28;20049;-74
2022/10/02 12:58:01;;;;;;;;;;;;;;;21.58;53.60;95444.22;5023538;28;20036;-75
2022/10/02 13:00:44;;;;;;;;;;;;;;;21.05;54.76;95426.06;5041920;28;20044;-71
2022/10/02 13:03:19;;;;;;;;;;;;;;;22.19;52.56;95434.91;5045014;28;20045;-72
2022/10/02 13:06:03;;;;;;;;;;;;;;;21.75;54.16;95420.09;5029375;28;20532;-72
2022/10/02 13:08:36;;;;;;;;;;;;;;;21.85;53.37;95432.16;5040006;28;20053;-73
2022/10/02 13:11:01;;;;;;;;;;;;;;;21.85;53.19;95428.69;5047882;28;20089;-71
2022/10/02 13:13:27;;;;;;;;;;;;;;;20.74;55.83;95438.72;5029817;28;20018;-71
2022/10/02 13:15:58;;;;;;;;;;;;;;;20.74;56.38;95444.13;5031397;28;20447;-70
2022/10/02 13:18:32;;;;;;;;;;;;;;;21.11;56.10;95453.56;5043031;28;20018;-72
2022/10/02 13:21:27;;;;;;;;;;;;;;;21.32;55.59;95447.72;5030304;28;20015;-72
2022/10/02 13:24:02;;;;;;;;;;;;;;;22.15;53.58;95436.78;5024322;28;20020;-72
2022/10/02 13:26:41;;;;;;;;;;;;;;;22.20;52.66;95436.47;5033001;28;20178;-72
2022/10/02 13:29:06;;;;;;;;;;;;;;;21.91;54.38;95424.53;5027763;28;20061;-71
2022/10/02 13:31:43;;;;;;;;;;;;;;;22.47;53.80;95453.38;5028647;28;20079;-71
2022/10/02 13:34:25;;;;;;;;;;;;;;;21.70;55.35;95471.06;5032673;28;20017;-71